Time;durP1;ratioP1;P1;durP2;ratioP2;P2;SDS_P1;SDS_P2;PMS_P1;PMS_P2;Temp;Humidity;BMP_temperature;BMP_pressure;BME280_temperature;BME280_humidity;BME280_pressure;Samples;Min_cycle;Max_cycle;Signal;HPM_P1;HPM_P2
2023/01/16 00:00:15;;;;;;;;;;;;;;;3.39;69.02;97183.75;7378965;19;20257;-86
2023/01/16 00:02:41;;;;;;;;;;;;;;;3.34;69.13;97172.91;7373581;19;20006;-86
2023/01/16 00:05:08;;;;;;;;;;;;;;;3.42;69.13;97166.97;7376396;19;19972;-84
2023/01/16 00:07:35;;;;;;;;;;;;;;;3.48;68.86;97169.88;7378224;19;19918;-85
2023/01/16 00:10:02;;;;;;;;;;;;;;;3.75;69.00;97152.56;7384677;19;19938;-85
2023/01/16 00:12:29;;;;;;;;;;;;;;;3.84;67.75;97150.88;7384419;19;19923;-85
2023/01/16 00:14:55;;;;;;;;;;;;;;;3.91;67.92;97151.97;7381905;19;20268;-86
2023/01/16 00:17:22;;;;;;;;;;;;;;;3.81;68.18;97144.16;7385837;19;19935;-86
2023/01/16 00:19:48;;;;;;;;;;;;;;;4.01;68.14;97147.53;7384238;19;20656;-86
2023/01/16 00:22:15;;;;;;;;;;;;;;;3.91;68.53;97134.47;7383275;19;20312;-87
2023/01/16 00:24:41;;;;;;;;;;;;;;;3.97;68.14;97141.72;7384061;19;19936;-86
2023/01/16 00:27:08;;;;;;;;;;;;;;;4.07;67.76;97140.88;7387566;19;19925;-86
2023/01/16 00:29:35;;;;;;;;;;;;;;;4.20;66.31;97128.28;7383755;19;19921;-85
2023/01/16 00:32:01;;;;;;;;;;;;;;;4.25;66.87;97127.84;7384135;19;20505;-87
2023/01/16 00:34:28;;;;;;;;;;;;;;;4.21;67.13;97124.69;7384125;19;19921;-88
2023/01/16 00:36:54;;;;;;;;;;;;;;;4.15;67.99;97125.28;7385667;19;19914;-86
2023/01/16 00:39:21;;;;;;;;;;;;;;;4.07;68.22;97112.91;7388251;19;19919;-87
2023/01/16 00:41:48;;;;;;;;;;;;;;;3.98;67.63;97113.78;7384222;19;19925;-86
2023/01/16 00:44:15;;;;;;;;;;;;;;;4.01;67.63;97107.44;7385805;19;20323;-86
2023/01/16 00:46:42;;;;;;;;;;;;;;;3.99;67.67;97104.97;7384507;19;20439;-86
2023/01/16 00:49:09;;;;;;;;;;;;;;;4.00;67.10;97100.56;7385813;19;19924;-86
2023/01/16 00:51:35;;;;;;;;;;;;;;;3.97;66.94;97086.78;7381780;19;19953;-86
2023/01/16 00:54:02;;;;;;;;;;;;;;;4.10;67.57;97085.63;7387239;19;19915;-87
2023/01/16 00:56:29;;;;;;;;;;;;;;;4.00;67.44;97077.00;7382302;19;19910;-84
2023/01/16 00:58:56;;;;;;;;;;;;;;;3.88;67.80;97071.97;7384299;19;20400;-85
2023/01/16 01:01:22;;;;;;;;;;;;;;;3.89;68.41;97072.78;7385836;19;19926;-85
2023/01/16 01:03:49;;;;;;;;;;;;;;;3.96;67.59;97066.81;7378888;19;20637;-83
2023/01/16 01:06:15;;;;;;;;;;;;;;;3.87;67.76;97059.88;7382534;19;19918;-83
2023/01/16 01:08:42;;;;;;;;;;;;;;;3.91;67.14;97061.22;7382531;19;20356;-84
2023/01/16 01:11:09;;;;;;;;;;;;;;;4.11;66.92;97053.25;7382446;19;20341;-85
2023/01/16 01:13:36;;;;;;;;;;;;;;;3.99;67.63;97064.91;7379221;19;19923;-84
2023/01/16 01:16:03;;;;;;;;;;;;;;;3.96;67.58;97061.59;7380700;19;19935;-85
2023/01/16 01:18:30;;;;;;;;;;;;;;;3.83;67.03;97055.88;7377159;19;20331;-86
2023/01/16 01:20:56;;;;;;;;;;;;;;;3.74;67.14;97056.78;7381297;19;19933;-84
2023/01/16 01:23:23;;;;;;;;;;;;;;;3.73;67.37;97042.03;7381195;19;19943;-84
2023/01/16 01:25:49;;;;;;;;;;;;;;;3.62;67.63;97040.44;7378747;19;19927;-83
2023/01/16 01:28:16;;;;;;;;;;;;;;;3.62;67.19;97037.00;7384500;19;19926;-84
2023/01/16 01:30:42;;;;;;;;;;;;;;;3.63;67.31;97028.16;7378077;19;19922;-85
2023/01/16 01:33:09;;;;;;;;;;;;;;;3.51;67.27;97031.00;7379492;19;19926;-84
2023/01/16 01:35:36;;;;;;;;;;;;;;;3.54;67.47;97026.44;7377640;19;20388;-85
2023/01/16 01:38:03;;;;;;;;;;;;;;;3.46;67.60;97017.53;7376881;19;20340;-84
2023/01/16 01:40:30;;;;;;;;;;;;;;;3.53;66.94;97015.16;7381707;19;19930;-83
2023/01/16 01:42:56;;;;;;;;;;;;;;;3.55;67.37;97012.38;7383011;19;19914;-83
2023/01/16 01:45:29;;;;;;;;;;;;;;;3.61;67.40;97015.25;7381958;19;19925;-85
2023/01/16 01:48:01;;;;;;;;;;;;;;;3.36;68.04;97011.50;7379728;19;19919;-85
2023/01/16 01:50:40;;;;;;;;;;;;;;;3.52;68.43;97003.84;7376113;19;20193;-85
2023/01/16 01:53:08;;;;;;;;;;;;;;;3.41;68.36;97001.44;7378573;19;19915;-84
2023/01/16 01:55:35;;;;;;;;;;;;;;;3.31;68.14;96987.59;7374804;19;19915;-85
2023/01/16 01:58:02;;;;;;;;;;;;;;;3.28;68.45;96988.69;7377462;19;19921;-83
2023/01/16 02:00:28;;;;;;;;;;;;;;;3.30;68.31;96983.34;7376011;19;19921;-85
2023/01/16 02:02:58;;;;;;;;;;;;;;;3.22;69.07;96967.56;7379355;19;19921;-84
2023/01/16 02:05:26;;;;;;;;;;;;;;;3.47;68.23;96964.25;7381260;19;19918;-84
2023/01/16 02:07:53;;;;;;;;;;;;;;;3.50;68.91;96947.44;7376988;19;19914;-84
2023/01/16 02:10:30;;;;;;;;;;;;;;;3.20;69.02;96948.59;7379242;19;19922;-85
2023/01/16 02:12:57;;;;;;;;;;;;;;;2.99;69.76;96948.81;7376933;19;19922;-83
2023/01/16 02:15:24;;;;;;;;;;;;;;;3.13;69.67;96929.22;7377424;19;22356;-85
2023/01/16 02:21:00;;;;;;;;;;;;;;;3.05;69.70;96906.41;7377794;19;19934;-81
2023/01/16 02:23:45;;;;;;;;;;;;;;;2.98;69.81;96898.34;7374602;19;19918;-83
2023/01/16 02:26:17;;;;;;;;;;;;;;;2.85;70.49;96885.63;7383876;19;19919;-83
2023/01/16 02:28:50;;;;;;;;;;;;;;;2.71;70.66;96878.22;7374787;19;19927;-83
2023/01/16 02:31:20;;;;;;;;;;;;;;;3.02;70.05;96868.34;7381248;19;19921;-86
2023/01/16 02:33:56;;;;;;;;;;;;;;;2.72;70.65;96869.44;7376859;19;19922;-82
2023/01/16 02:36:25;;;;;;;;;;;;;;;2.77;70.68;96856.78;7383122;19;19978;-82
2023/01/16 02:38:54;;;;;;;;;;;;;;;2.73;70.56;96855.41;7378069;19;19919;-82
2023/01/16 02:41:41;;;;;;;;;;;;;;;2.89;70.87;96846.97;7381559;19;19978;-86
2023/01/16 02:44:10;;;;;;;;;;;;;;;2.80;70.49;96840.00;7372752;19;19922;-82
2023/01/16 02:46:39;;;;;;;;;;;;;;;2.87;70.14;96830.63;7374024;19;19938;-83
2023/01/16 02:49:18;;;;;;;;;;;;;;;2.98;70.12;96825.19;7379639;19;19938;-84
2023/01/16 02:51:49;;;;;;;;;;;;;;;2.98;69.78;96809.53;7375069;19;20360;-81
2023/01/16 02:54:17;;;;;;;;;;;;;;;2.99;69.92;96799.91;7377599;19;19919;-84
2023/01/16 02:56:45;;;;;;;;;;;;;;;3.02;70.05;96794.38;7372611;19;19955;-82
2023/01/16 02:59:13;;;;;;;;;;;;;;;3.03;69.39;96775.13;7378354;19;19911;-83
2023/01/16 03:01:40;;;;;;;;;;;;;;;3.16;68.78;96769.50;7373897;19;20325;-83
2023/01/16 03:04:25;;;;;;;;;;;;;;;3.15;69.13;96766.09;7376829;19;20397;-84
2023/01/16 03:06:58;;;;;;;;;;;;;;;3.11;69.12;96753.47;7378645;19;19925;-82
2023/01/16 03:09:28;;;;;;;;;;;;;;;3.17;68.74;96755.50;7374333;19;19930;-82
2023/01/16 03:12:13;;;;;;;;;;;;;;;3.15;68.95;96747.78;7373753;19;19915;-80
2023/01/16 03:14:56;;;;;;;;;;;;;;;3.27;68.25;96736.16;7375497;19;19919;-82
2023/01/16 03:17:29;;;;;;;;;;;;;;;3.29;68.65;96730.75;7375516;19;19927;-82
2023/01/16 03:20:00;;;;;;;;;;;;;;;3.38;67.60;96729.88;7375486;19;19922;-82
2023/01/16 03:22:27;;;;;;;;;;;;;;;3.41;68.22;96732.19;7376477;19;19915;-80
2023/01/16 03:25:10;;;;;;;;;;;;;;;3.41;68.03;96713.88;7378074;19;19923;-85
2023/01/16 03:27:42;;;;;;;;;;;;;;;3.42;68.06;96722.53;7379010;19;19943;-85
2023/01/16 03:30:10;;;;;;;;;;;;;;;3.53;67.53;96722.31;7380874;19;19918;-85
2023/01/16 03:32:40;;;;;;;;;;;;;;;3.33;68.10;96708.59;7377734;19;20535;-84
2023/01/16 03:35:33;;;;;;;;;;;;;;;3.30;68.50;96707.09;7380546;19;19930;-84
2023/01/16 03:38:04;;;;;;;;;;;;;;;3.19;68.81;96699.50;7383276;19;19914;-84
2023/01/16 03:40:32;;;;;;;;;;;;;;;3.13;68.93;96694.03;7378954;19;19989;-86
2023/01/16 03:43:01;;;;;;;;;;;;;;;3.20;68.51;96692.47;7392275;19;19919;-83
2023/01/16 03:45:47;;;;;;;;;;;;;;;3.21;68.69;96681.03;7389289;19;19996;-84
2023/01/16 03:48:14;;;;;;;;;;;;;;;3.10;68.30;96671.66;7390924;19;19906;-84
2023/01/16 03:50:42;;;;;;;;;;;;;;;3.10;68.41;96670.84;7388116;19;19985;-84
2023/01/16 03:53:10;;;;;;;;;;;;;;;3.13;68.85;96667.91;7391841;19;19918;-84
2023/01/16 03:56:00;;;;;;;;;;;;;;;3.21;68.52;96660.13;7389691;19;19942;-84
2023/01/16 03:58:37;;;;;;;;;;;;;;;3.14;68.43;96659.94;7393468;19;19926;-85
2023/01/16 04:01:09;;;;;;;;;;;;;;;3.18;68.69;96645.56;7391694;19;19921;-84
2023/01/16 04:03:54;;;;;;;;;;;;;;;3.36;68.20;96649.97;7392682;19;19919;-85
2023/01/16 04:06:24;;;;;;;;;;;;;;;3.33;68.75;96629.38;7394073;19;19985;-84
2023/01/16 04:08:50;;;;;;;;;;;;;;;3.28;69.28;96624.59;7397807;19;19947;-83
2023/01/16 04:11:17;;;;;;;;;;;;;;;3.05;70.04;96622.47;7396389;19;20016;-85
2023/01/16 04:13:44;;;;;;;;;;;;;;;3.10;69.19;96606.31;7391239;19;19931;-84
2023/01/16 04:16:10;;;;;;;;;;;;;;;3.14;69.51;96605.06;7394377;19;19914;-84
2023/01/16 04:18:37;;;;;;;;;;;;;;;3.04;69.63;96591.28;7391526;19;19922;-84
2023/01/16 04:21:05;;;;;;;;;;;;;;;3.05;70.14;96587.69;7396815;19;19982;-84
2023/01/16 04:23:31;;;;;;;;;;;;;;;2.73;69.52;96580.41;7393159;19;20831;-84
2023/01/16 04:25:58;;;;;;;;;;;;;;;2.77;69.30;96579.16;7386130;19;20279;-83
2023/01/16 04:28:24;;;;;;;;;;;;;;;2.81;70.29;96564.81;7384974;19;20470;-85
2023/01/16 04:30:51;;;;;;;;;;;;;;;2.83;69.70;96552.44;7380137;19;19914;-84
2023/01/16 04:33:17;;;;;;;;;;;;;;;2.85;69.06;96548.69;7385526;19;20272;-84
2023/01/16 04:35:44;;;;;;;;;;;;;;;2.92;69.15;96551.50;7381458;19;19928;-85
2023/01/16 04:38:12;;;;;;;;;;;;;;;2.94;69.16;96544.34;7386055;19;19981;-85
2023/01/16 04:40:38;;;;;;;;;;;;;;;3.16;69.20;96531.72;7386495;19;19926;-85
2023/01/16 04:43:05;;;;;;;;;;;;;;;3.13;69.59;96524.19;7390378;19;20301;-85
2023/01/16 04:45:32;;;;;;;;;;;;;;;3.29;68.70;96516.44;7387782;19;19919;-85
2023/01/16 04:47:58;;;;;;;;;;;;;;;3.05;68.76;96507.53;7384673;19;19947;-84
2023/01/16 04:50:25;;;;;;;;;;;;;;;3.06;69.09;96490.88;7382803;19;19927;-83
2023/01/16 04:52:51;;;;;;;;;;;;;;;2.93;70.11;96495.69;7372815;19;19915;-83
2023/01/16 04:55:18;;;;;;;;;;;;;;;2.98;69.94;96480.38;7382961;19;19945;-85
2023/01/16 04:57:44;;;;;;;;;;;;;;;3.03;69.78;96485.97;7373305;19;19915;-84
2023/01/16 05:00:11;;;;;;;;;;;;;;;2.82;69.80;96464.63;7387474;19;19937;-84
2023/01/16 05:02:38;;;;;;;;;;;;;;;2.96;69.40;96458.00;7380018;19;19935;-83
2023/01/16 05:05:05;;;;;;;;;;;;;;;2.96;69.98;96444.94;7383973;19;19923;-84
2023/01/16 05:07:32;;;;;;;;;;;;;;;2.91;69.78;96432.34;7377466;19;19955;-85
2023/01/16 05:09:58;;;;;;;;;;;;;;;2.86;69.98;96434.59;7379571;19;20592;-84
2023/01/16 05:12:25;;;;;;;;;;;;;;;2.79;69.68;96428.34;7377166;19;19932;-83
2023/01/16 05:14:52;;;;;;;;;;;;;;;2.91;69.25;96419.28;7378679;19;19927;-83
2023/01/16 05:17:22;;;;;;;;;;;;;;;2.69;70.00;96420.63;7382427;19;19925;-84
2023/01/16 05:19:49;;;;;;;;;;;;;;;3.02;69.25;96411.16;7380747;19;20398;-84
2023/01/16 05:22:15;;;;;;;;;;;;;;;3.09;69.61;96400.91;7386942;19;20668;-83
2023/01/16 05:24:42;;;;;;;;;;;;;;;3.01;69.26;96396.47;7383828;19;19923;-84
2023/01/16 05:27:08;;;;;;;;;;;;;;;2.99;68.84;96393.19;7382882;19;19926;-84
2023/01/16 05:29:35;;;;;;;;;;;;;;;2.99;68.97;96393.19;7381056;19;19957;-84
2023/01/16 05:32:02;;;;;;;;;;;;;;;3.00;69.68;96373.09;7381302;19;20252;-84
2023/01/16 05:34:28;;;;;;;;;;;;;;;2.98;69.21;96367.25;7384474;19;19925;-86
2023/01/16 05:36:55;;;;;;;;;;;;;;;2.88;69.44;96354.31;7381372;19;19950;-85
2023/01/16 05:39:22;;;;;;;;;;;;;;;2.79;69.77;96350.00;7386324;19;19933;-85
2023/01/16 05:41:48;;;;;;;;;;;;;;;2.85;69.25;96346.78;7376176;19;20770;-84
2023/01/16 05:44:15;;;;;;;;;;;;;;;2.86;69.32;96338.78;7379061;19;19918;-83
2023/01/16 05:46:41;;;;;;;;;;;;;;;2.77;69.57;96344.97;7375664;19;20301;-84
2023/01/16 05:49:08;;;;;;;;;;;;;;;2.81;69.13;96330.59;7385073;19;19927;-83
2023/01/16 05:51:34;;;;;;;;;;;;;;;2.76;69.84;96322.41;7388110;19;19925;-83
2023/01/16 05:54:02;;;;;;;;;;;;;;;2.63;69.93;96316.81;7391139;19;19934;-83
2023/01/16 05:56:28;;;;;;;;;;;;;;;2.80;70.08;96302.84;7387069;19;20300;-83
2023/01/16 05:58:57;;;;;;;;;;;;;;;2.74;69.86;96287.00;7388005;19;19925;-82
2023/01/16 06:01:23;;;;;;;;;;;;;;;2.85;69.54;96289.34;7386859;19;19959;-84
2023/01/16 06:03:50;;;;;;;;;;;;;;;2.91;69.29;96280.03;7383691;19;19918;-82
2023/01/16 06:06:17;;;;;;;;;;;;;;;2.95;69.59;96273.50;7387706;19;20293;-83
2023/01/16 06:08:45;;;;;;;;;;;;;;;2.74;69.61;96266.09;7386099;19;19919;-83
2023/01/16 06:11:11;;;;;;;;;;;;;;;2.87;69.86;96266.50;7387801;19;19929;-83
2023/01/16 06:13:38;;;;;;;;;;;;;;;2.87;69.94;96256.03;7387466;19;19921;-82
2023/01/16 06:16:05;;;;;;;;;;;;;;;2.56;69.99;96253.19;7386836;19;19919;-83
2023/01/16 06:18:31;;;;;;;;;;;;;;;2.69;70.20;96240.50;7391527;19;19919;-82
2023/01/16 06:20:58;;;;;;;;;;;;;;;2.63;70.19;96228.91;7390159;19;19922;-83
2023/01/16 06:23:24;;;;;;;;;;;;;;;2.58;70.04;96217.25;7390948;19;19914;-81
2023/01/16 06:25:51;;;;;;;;;;;;;;;2.69;69.94;96209.16;7378442;19;19923;-83
2023/01/16 06:28:18;;;;;;;;;;;;;;;2.75;69.69;96189.41;7376263;19;19918;-82
2023/01/16 06:30:49;;;;;;;;;;;;;;;2.84;69.45;96193.66;7380236;19;19928;-82
2023/01/16 06:33:16;;;;;;;;;;;;;;;2.69;70.11;96195.28;7376008;19;20007;-82
2023/01/16 06:35:42;;;;;;;;;;;;;;;2.89;69.03;96172.31;7377218;19;19922;-81
2023/01/16 06:38:09;;;;;;;;;;;;;;;2.91;69.17;96162.50;7375108;19;19925;-83
2023/01/16 06:40:35;;;;;;;;;;;;;;;2.85;69.45;96162.19;7377967;19;20531;-84
2023/01/16 06:43:02;;;;;;;;;;;;;;;3.05;69.29;96154.84;7381604;19;20288;-82
2023/01/16 06:45:29;;;;;;;;;;;;;;;3.01;68.58;96143.09;7383622;19;19915;-82
2023/01/16 06:47:55;;;;;;;;;;;;;;;3.19;68.46;96144.72;7384447;19;19951;-82
2023/01/16 06:50:22;;;;;;;;;;;;;;;3.25;67.96;96134.41;7386088;19;19926;-82
2023/01/16 06:52:48;;;;;;;;;;;;;;;3.20;68.12;96135.91;7385772;19;19929;-83
2023/01/16 06:55:15;;;;;;;;;;;;;;;3.10;67.95;96146.50;7391102;19;19919;-83
2023/01/16 06:57:44;;;;;;;;;;;;;;;2.95;68.52;96127.25;7382250;19;19974;-83
2023/01/16 07:00:11;;;;;;;;;;;;;;;3.00;68.04;96120.56;7382997;19;20542;-82
2023/01/16 07:02:39;;;;;;;;;;;;;;;3.15;68.07;96112.88;7387317;19;20586;-83
2023/01/16 07:05:09;;;;;;;;;;;;;;;3.22;67.27;96108.63;7387508;19;19978;-82
2023/01/16 07:07:36;;;;;;;;;;;;;;;3.30;67.75;96105.19;7385874;19;19919;-82
2023/01/16 07:10:02;;;;;;;;;;;;;;;3.25;67.72;96097.03;7387438;19;19945;-82
2023/01/16 07:12:29;;;;;;;;;;;;;;;3.22;67.91;96094.75;7385106;19;19919;-82
2023/01/16 07:23:14;;;;;;;;;;;;;;;3.20;67.33;96079.22;7395381;19;19936;-82
2023/01/16 07:25:40;;;;;;;;;;;;;;;3.06;67.41;96075.50;7392044;19;19950;-82
2023/01/16 07:28:07;;;;;;;;;;;;;;;3.04;68.22;96063.59;7390081;19;19919;-82
2023/01/16 07:30:34;;;;;;;;;;;;;;;3.32;67.22;96057.97;7390993;19;19986;-82
2023/01/16 07:33:00;;;;;;;;;;;;;;;3.14;67.66;96063.41;7405433;19;19922;-82
2023/01/16 07:35:27;;;;;;;;;;;;;;;3.20;67.65;96067.97;7405046;19;19965;-82
2023/01/16 07:37:56;;;;;;;;;;;;;;;3.34;66.85;96056.81;7390135;19;19915;-81
2023/01/16 07:40:23;;;;;;;;;;;;;;;3.45;67.10;96051.25;7391766;19;19915;-85
2023/01/16 07:42:50;;;;;;;;;;;;;;;3.32;66.23;96032.66;7391997;19;19923;-82
2023/01/16 07:45:17;;;;;;;;;;;;;;;3.27;66.18;96037.59;7405242;19;20010;-81
2023/01/16 07:47:44;;;;;;;;;;;;;;;3.57;66.25;96043.84;7397174;19;19935;-81
2023/01/16 07:50:11;;;;;;;;;;;;;;;3.51;66.00;96028.84;7394999;19;19922;-82
2023/01/16 07:52:37;;;;;;;;;;;;;;;3.58;66.01;96028.97;7400006;19;20345;-82
2023/01/16 07:55:04;;;;;;;;;;;;;;;3.46;66.01;96024.13;7405063;19;19974;-81
2023/01/16 07:57:31;;;;;;;;;;;;;;;3.63;66.13;96024.03;7412285;19;19919;-82
2023/01/16 07:59:57;;;;;;;;;;;;;;;3.81;66.02;96013.34;7400972;19;19919;-83
2023/01/16 08:02:24;;;;;;;;;;;;;;;3.68;66.08;96006.06;7398447;19;19922;-82
2023/01/16 08:04:51;;;;;;;;;;;;;;;3.57;67.14;96001.22;7396317;19;19922;-83
2023/01/16 08:07:17;;;;;;;;;;;;;;;3.58;66.27;95995.81;7392044;19;19926;-82
2023/01/16 08:09:44;;;;;;;;;;;;;;;3.41;67.04;95984.59;7396398;19;19982;-82
2023/01/16 08:12:11;;;;;;;;;;;;;;;3.60;66.79;95975.53;7391496;19;19921;-82
2023/01/16 08:14:38;;;;;;;;;;;;;;;3.55;66.73;95962.16;7389359;19;19923;-82
2023/01/16 08:17:05;;;;;;;;;;;;;;;3.37;66.70;95962.41;7391281;19;20005;-83
2023/01/16 08:19:32;;;;;;;;;;;;;;;3.37;67.01;95954.56;7392693;19;19925;-83
2023/01/16 08:21:59;;;;;;;;;;;;;;;3.49;66.21;95945.34;7391915;19;19935;-82
2023/01/16 08:24:25;;;;;;;;;;;;;;;3.65;66.19;95948.88;7394858;19;19911;-82
2023/01/16 08:26:52;;;;;;;;;;;;;;;3.50;66.32;95952.22;7392423;19;19923;-81
2023/01/16 08:29:18;;;;;;;;;;;;;;;3.45;66.17;95949.31;7394687;19;19918;-82
2023/01/16 08:31:45;;;;;;;;;;;;;;;3.59;65.66;95944.34;7394777;19;19933;-84
2023/01/16 08:34:12;;;;;;;;;;;;;;;3.59;65.89;95936.50;7397039;19;19919;-82
2023/01/16 08:36:38;;;;;;;;;;;;;;;3.90;65.62;95939.91;7394133;19;19914;-81
2023/01/16 08:39:05;;;;;;;;;;;;;;;3.81;64.43;95933.06;7394351;19;19921;-81
2023/01/16 08:52:47;;;;;;;;;;;;;;;4.20;63.84;95911.22;7389542;19;20353;-82
2023/01/16 08:55:14;;;;;;;;;;;;;;;4.31;63.90;95904.75;7395738;19;21612;-82
2023/01/16 08:57:41;;;;;;;;;;;;;;;4.36;63.70;95903.22;7391180;19;20029;-82
2023/01/16 09:00:08;;;;;;;;;;;;;;;4.34;63.52;95901.78;7392472;19;20365;-83
2023/01/16 09:02:36;;;;;;;;;;;;;;;4.34;63.71;95904.38;7393107;19;19914;-82
2023/01/16 09:05:03;;;;;;;;;;;;;;;4.35;62.70;95906.03;7392218;19;19922;-82
2023/01/16 09:07:29;;;;;;;;;;;;;;;4.59;63.53;95907.59;7391889;19;19915;-83
2023/01/16 09:09:56;;;;;;;;;;;;;;;4.46;62.11;95907.41;7393883;19;19919;-83
2023/01/16 09:15:08;;;;;;;;;;;;;;;4.38;62.51;95911.72;7391089;19;20358;-83
2023/01/16 09:17:35;;;;;;;;;;;;;;;4.46;62.90;95908.22;7385339;19;19954;-83
2023/01/16 09:20:02;;;;;;;;;;;;;;;4.70;62.38;95915.00;7391366;19;19954;-84
2023/01/16 09:22:29;;;;;;;;;;;;;;;4.68;63.10;95911.75;7393392;19;19922;-84
2023/01/16 09:24:55;;;;;;;;;;;;;;;4.28;62.86;95918.19;7392921;19;20700;-83
2023/01/16 09:27:24;;;;;;;;;;;;;;;4.16;62.10;95925.63;7391709;19;19926;-83
2023/01/16 09:29:51;;;;;;;;;;;;;;;4.20;61.58;95923.50;7390827;19;19914;-82
2023/01/16 09:32:18;;;;;;;;;;;;;;;4.26;60.42;95941.09;7392565;19;19922;-82
2023/01/16 09:34:45;;;;;;;;;;;;;;;4.43;59.55;95950.47;7388645;19;19918;-83
2023/01/16 09:37:11;;;;;;;;;;;;;;;4.41;59.35;95947.19;7387243;19;20412;-82
2023/01/16 09:39:38;;;;;;;;;;;;;;;4.52;58.98;95938.09;7384157;19;19926;-82
2023/01/16 09:45:00;;;;;;;;;;;;;;;4.55;57.95;95911.56;7386048;19;19929;-81
2023/01/16 09:47:27;;;;;;;;;;;;;;;4.60;58.53;95907.41;7384207;19;20344;-82
2023/01/16 09:49:58;;;;;;;;;;;;;;;4.67;58.55;95883.13;7382163;19;19929;-82
2023/01/16 09:58:37;;;;;;;;;;;;;;;4.77;56.67;95871.41;7384998;19;19925;-79
2023/01/16 10:01:08;;;;;;;;;;;;;;;4.81;56.78;95872.66;7386952;19;19918;-81
2023/01/16 10:03:41;;;;;;;;;;;;;;;5.03;56.72;95859.66;7378163;19;20483;-80
2023/01/16 10:06:11;;;;;;;;;;;;;;;4.91;55.51;95855.84;7379185;19;19911;-82
2023/01/16 10:08:46;;;;;;;;;;;;;;;5.00;56.09;95846.88;7386162;19;19915;-81
2023/01/16 10:11:33;;;;;;;;;;;;;;;5.10;55.76;95834.31;7385685;19;19922;-81
2023/01/16 10:14:03;;;;;;;;;;;;;;;5.03;54.46;95826.38;7380745;19;19922;-83
2023/01/16 10:16:48;;;;;;;;;;;;;;;5.06;54.54;95838.31;7385334;19;19918;-82
2023/01/16 10:19:17;;;;;;;;;;;;;;;4.96;53.72;95819.44;7386511;19;19982;-80
2023/01/16 10:21:50;;;;;;;;;;;;;;;5.06;54.09;95814.72;7389999;19;19918;-81
2023/01/16 10:24:19;;;;;;;;;;;;;;;5.16;53.55;95809.19;7392223;19;19922;-81
2023/01/16 10:26:49;;;;;;;;;;;;;;;5.10;52.94;95788.97;7380006;19;19993;-80
2023/01/16 10:29:18;;;;;;;;;;;;;;;5.10;52.98;95781.91;7390331;19;19919;-85
2023/01/16 10:31:47;;;;;;;;;;;;;;;5.25;53.20;95777.44;7390409;19;19922;-83
2023/01/16 10:34:21;;;;;;;;;;;;;;;5.19;52.73;95772.13;7381304;19;20672;-81
2023/01/16 10:36:48;;;;;;;;;;;;;;;5.36;52.65;95775.31;7384202;19;19922;-82
2023/01/16 10:39:15;;;;;;;;;;;;;;;5.27;52.75;95780.69;7386967;19;20281;-82
2023/01/16 10:50:17;;;;;;;;;;;;;;;5.24;51.56;95749.59;7380167;19;19939;-81
2023/01/16 10:53:05;;;;;;;;;;;;;;;5.34;52.34;95765.00;7377638;19;19915;-80
2023/01/16 10:55:32;;;;;;;;;;;;;;;5.41;52.30;95768.50;7379039;19;20609;-83
2023/01/16 10:58:00;;;;;;;;;;;;;;;5.35;56.14;95760.59;7375653;19;19937;-79
2023/01/16 11:00:30;;;;;;;;;;;;;;;5.31;56.72;95744.41;7376980;19;19907;-79
2023/01/16 11:02:57;;;;;;;;;;;;;;;5.33;58.32;95741.63;7377815;19;19914;-79
2023/01/16 11:05:31;;;;;;;;;;;;;;;5.34;57.12;95733.53;7373400;19;19965;-80
2023/01/16 11:08:04;;;;;;;;;;;;;;;5.40;57.86;95719.72;7368934;19;20485;-78
2023/01/16 11:10:30;;;;;;;;;;;;;;;5.42;57.54;95733.41;7377604;19;19929;-81
2023/01/16 11:18:44;;;;;;;;;;;;;;;5.58;55.66;95710.56;7377477;19;19923;-79
2023/01/16 11:21:13;;;;;;;;;;;;;;;5.53;58.77;95710.31;7380721;19;20352;-80
2023/01/16 11:23:41;;;;;;;;;;;;;;;5.32;60.23;95709.34;7373756;19;19927;-80
2023/01/16 11:26:07;;;;;;;;;;;;;;;5.13;63.27;95695.03;7378310;19;19921;-78
2023/01/16 11:28:34;;;;;;;;;;;;;;;5.33;64.39;95689.19;7377213;19;19918;-80
2023/01/16 11:31:02;;;;;;;;;;;;;;;5.30;63.58;95679.09;7378499;19;20249;-82
2023/01/16 11:33:34;;;;;;;;;;;;;;;5.27;62.35;95680.28;7373021;19;19926;-80
2023/01/16 11:36:01;;;;;;;;;;;;;;;5.35;61.39;95676.72;7369976;19;19939;-82
2023/01/16 11:38:27;;;;;;;;;;;;;;;5.39;61.25;95662.19;7377293;19;19915;-81
2023/01/16 11:40:55;;;;;;;;;;;;;;;5.33;60.00;95655.09;7373060;19;19919;-82
2023/01/16 11:46:27;;;;;;;;;;;;;;;5.22;62.56;95638.88;7376381;19;19935;-79
2023/01/16 11:48:54;;;;;;;;;;;;;;;5.22;62.19;95624.97;7372245;19;19930;-81
2023/01/16 11:51:23;;;;;;;;;;;;;;;5.36;62.13;95618.81;7373994;19;20954;-81
2023/01/16 11:53:50;;;;;;;;;;;;;;;5.39;63.26;95615.00;7373088;19;19922;-81
2023/01/16 11:56:17;;;;;;;;;;;;;;;5.28;62.52;95598.00;7375137;19;19918;-81
2023/01/16 11:59:06;;;;;;;;;;;;;;;5.37;61.44;95593.41;7375542;19;19922;-80
2023/01/16 12:04:37;;;;;;;;;;;;;;;5.44;61.46;95566.25;7386323;19;20395;-80
2023/01/16 12:07:14;;;;;;;;;;;;;;;5.46;62.39;95568.69;7378908;19;19915;-82
2023/01/16 12:10:03;;;;;;;;;;;;;;;5.34;62.14;95565.75;7385577;19;19919;-79
2023/01/16 12:15:35;;;;;;;;;;;;;;;5.58;62.86;95551.41;7384965;19;20652;-83
2023/01/16 12:18:11;;;;;;;;;;;;;;;5.75;62.56;95530.91;7375713;19;19929;-81
2023/01/16 12:20:41;;;;;;;;;;;;;;;5.77;62.69;95533.34;7377043;19;20637;-81
2023/01/16 12:23:26;;;;;;;;;;;;;;;5.59;63.14;95544.34;7375567;19;19917;-78
2023/01/16 12:26:12;;;;;;;;;;;;;;;5.67;62.54;95534.50;7374590;19;19927;-80
2023/01/16 12:28:47;;;;;;;;;;;;;;;5.78;62.98;95522.63;7385606;19;19914;-81
2023/01/16 12:31:37;;;;;;;;;;;;;;;5.65;63.03;95510.28;7380562;19;19934;-80
2023/01/16 12:34:16;;;;;;;;;;;;;;;5.88;63.02;95506.53;7378387;19;19922;-82
2023/01/16 12:36:51;;;;;;;;;;;;;;;5.87;63.11;95503.13;7379102;19;20343;-82
2023/01/16 12:39:25;;;;;;;;;;;;;;;5.78;62.72;95492.97;7385548;19;19914;-81
2023/01/16 12:45:05;;;;;;;;;;;;;;;5.77;62.74;95486.94;7383437;19;19929;-81
2023/01/16 12:47:50;;;;;;;;;;;;;;;5.89;62.45;95490.59;7381524;19;19919;-80
2023/01/16 12:50:21;;;;;;;;;;;;;;;6.12;62.30;95474.53;7386456;19;20304;-80
2023/01/16 12:53:12;;;;;;;;;;;;;;;6.37;62.58;95471.31;7386109;19;19914;-82
2023/01/16 12:55:39;;;;;;;;;;;;;;;6.43;61.45;95461.88;7382831;19;19926;-84
2023/01/16 12:58:19;;;;;;;;;;;;;;;6.48;61.81;95462.06;7389520;19;19913;-82
2023/01/16 13:00:47;;;;;;;;;;;;;;;6.39;62.14;95448.31;7388204;19;19936;-79
2023/01/16 13:03:17;;;;;;;;;;;;;;;6.26;61.80;95440.44;7389641;19;19929;-79
2023/01/16 13:05:44;;;;;;;;;;;;;;;6.49;62.34;95432.16;7383303;19;19941;-79
2023/01/16 13:08:19;;;;;;;;;;;;;;;6.22;62.04;95426.91;7384150;19;19931;-79
2023/01/16 13:13:35;;;;;;;;;;;;;;;6.17;62.25;95421.44;7379283;19;19918;-80
2023/01/16 13:16:03;;;;;;;;;;;;;;;6.33;61.21;95417.63;7385245;19;19921;-79
2023/01/16 13:18:29;;;;;;;;;;;;;;;6.56;61.87;95399.63;7389675;19;20297;-79
2023/01/16 13:20:57;;;;;;;;;;;;;;;6.40;61.48;95404.47;7385448;19;19925;-79
2023/01/16 13:23:24;;;;;;;;;;;;;;;6.52;61.56;95405.50;7381459;19;19925;-83
2023/01/16 13:25:56;;;;;;;;;;;;;;;6.49;62.03;95390.13;7383488;19;19926;-79
2023/01/16 13:28:44;;;;;;;;;;;;;;;6.47;62.07;95387.72;7387058;19;19918;-80
2023/01/16 13:31:22;;;;;;;;;;;;;;;6.38;61.92;95383.69;7380473;19;19918;-80
2023/01/16 13:33:50;;;;;;;;;;;;;;;6.73;61.55;95375.56;7382412;19;19951;-80
2023/01/16 13:36:37;;;;;;;;;;;;;;;6.54;61.17;95378.00;7381533;19;20385;-81
2023/01/16 13:39:22;;;;;;;;;;;;;;;6.77;62.08;95367.06;7383902;19;19922;-79
2023/01/16 13:41:51;;;;;;;;;;;;;;;6.76;61.39;95364.63;7384576;19;19926;-81
2023/01/16 13:47:07;;;;;;;;;;;;;;;6.93;61.52;95359.75;7388590;19;19922;-80
2023/01/16 13:49:34;;;;;;;;;;;;;;;7.11;61.40;95345.94;7386253;19;19919;-81
2023/01/16 13:52:01;;;;;;;;;;;;;;;7.22;60.38;95350.56;7378291;19;19922;-78
2023/01/16 13:54:35;;;;;;;;;;;;;;;7.31;59.62;95344.03;7378456;19;19929;-79
2023/01/16 13:57:03;;;;;;;;;;;;;;;7.16;59.62;95332.97;7386215;19;19926;-80
2023/01/16 13:59:48;;;;;;;;;;;;;;;7.14;60.23;95343.72;7379962;19;19922;-82
2023/01/16 14:02:22;;;;;;;;;;;;;;;6.96;59.96;95331.22;7378639;19;19923;-81
2023/01/16 14:05:04;;;;;;;;;;;;;;;7.20;59.62;95329.72;7378344;19;19986;-82
2023/01/16 14:10:44;;;;;;;;;;;;;;;6.96;59.39;95328.59;7378991;19;19939;-80
2023/01/16 14:13:11;;;;;;;;;;;;;;;6.99;60.05;95336.06;7373108;19;19927;-82
2023/01/16 14:18:55;;;;;;;;;;;;;;;6.78;59.75;95321.38;7379567;19;19919;-82
2023/01/16 14:21:35;;;;;;;;;;;;;;;6.86;60.96;95327.44;7376723;19;20296;-78